Time;durP1;ratioP1;P1;durP2;ratioP2;P2;SDS_P1;SDS_P2;PMS_P1;PMS_P2;Temp;Humidity;BMP_temperature;BMP_pressure;BME280_temperature;BME280_humidity;BME280_pressure;Samples;Min_cycle;Max_cycle;Signal;HPM_P1;HPM_P2
2024/03/17 00:01:49;;;;;;;10.50;2.90;;;;;;;;;;103774;1292;544957;-72
2024/03/17 00:05:18;;;;;;;9.00;2.90;;;;;;;;;;103821;1289;545110;-72
2024/03/17 00:08:55;;;;;;;10.40;2.60;;;;;;;;;;103749;1292;544721;-72
2024/03/17 00:12:33;;;;;;;11.50;3.10;;;;;;;;;;103820;1289;544962;-73
2024/03/17 00:16:11;;;;;;;9.30;3.10;;;;;;;;;;103849;1289;545427;-72
2024/03/17 00:20:18;;;;;;;10.30;3.30;;;;;;;;;;103544;1291;545219;-72
2024/03/17 00:23:22;;;;;;;11.00;2.90;;;;;;;;;;103628;1298;545757;-71
2024/03/17 00:27:22;;;;;;;10.40;3.10;;;;;;;;;;103799;1289;545964;-72
2024/03/17 00:30:38;;;;;;;10.30;3.20;;;;;;;;;;103717;1291;544968;-72
2024/03/17 00:37:53;;;;;;;8.40;2.60;;;;;;;;;;103699;1293;545422;-73
2024/03/17 00:41:31;;;;;;;9.70;3.10;;;;;;;;;;103898;1291;544975;-73
2024/03/17 00:45:20;;;;;;;9.70;2.90;;;;;;;;;;103607;1296;545776;-72
2024/03/17 00:48:53;;;;;;;9.40;2.70;;;;;;;;;;103844;1290;544976;-73
2024/03/17 00:52:23;;;;;;;9.40;2.70;;;;;;;;;;103778;1291;544975;-72
2024/03/17 00:56:20;;;;;;;9.90;3.20;;;;;;;;;;103689;1295;547796;-73
2024/03/17 01:00:01;;;;;;;10.50;2.60;;;;;;;;;;103678;1292;545528;-72
2024/03/17 01:03:25;;;;;;;10.50;2.60;;;;;;;;;;103849;1292;545599;-72
2024/03/17 01:10:31;;;;;;;10.30;3.00;;;;;;;;;;103679;1291;544941;-72
2024/03/17 01:15:02;;;;;;;8.00;2.80;;;;;;;;;;103555;1298;545566;-71
2024/03/17 01:17:47;;;;;;;11.70;3.20;;;;;;;;;;104183;1288;544934;-73
2024/03/17 01:21:24;;;;;;;9.30;2.50;;;;;;;;;;103883;1290;544788;-72
2024/03/17 01:25:08;;;;;;;9.90;2.50;;;;;;;;;;103680;1292;545137;-74
2024/03/17 01:28:49;;;;;;;9.00;2.50;;;;;;;;;;103700;1295;547946;-73
2024/03/17 01:32:18;;;;;;;9.60;2.80;;;;;;;;;;104117;1286;544885;-72
2024/03/17 01:35:50;;;;;;;10.80;3.10;;;;;;;;;;104028;1289;545383;-72
2024/03/17 01:39:41;;;;;;;9.90;2.70;;;;;;;;;;103488;1294;545592;-72
2024/03/17 01:43:15;;;;;;;9.80;2.80;;;;;;;;;;103806;1289;545409;-72
2024/03/17 01:46:54;;;;;;;8.70;2.80;;;;;;;;;;103785;1289;545025;-73
2024/03/17 01:50:26;;;;;;;10.90;2.90;;;;;;;;;;103784;1290;544774;-72
2024/03/17 01:54:01;;;;;;;10.20;2.60;;;;;;;;;;103752;1290;544700;-71
2024/03/17 01:58:07;;;;;;;11.10;3.00;;;;;;;;;;103619;1291;548018;-71
2024/03/17 02:01:46;;;;;;;12.30;3.00;;;;;;;;;;103593;1292;545393;-73
2024/03/17 02:04:50;;;;;;;9.90;2.60;;;;;;;;;;103862;1289;545042;-73
2024/03/17 02:08:46;;;;;;;11.30;2.70;;;;;;;;;;103756;1292;545449;-72
2024/03/17 02:12:09;;;;;;;8.90;2.60;;;;;;;;;;103837;1295;544856;-72
2024/03/17 02:15:56;;;;;;;12.20;2.70;;;;;;;;;;103880;1287;544970;-72
2024/03/17 02:26:50;;;;;;;9.50;2.20;;;;;;;;;;104649;1281;545221;-72
2024/03/17 02:30:28;;;;;;;9.30;2.10;;;;;;;;;;104260;1288;545643;-72
2024/03/17 02:34:05;;;;;;;10.00;2.50;;;;;;;;;;103822;1292;545425;-72
2024/03/17 02:37:43;;;;;;;8.80;2.30;;;;;;;;;;103786;1295;544769;-71
2024/03/17 02:41:26;;;;;;;9.80;2.50;;;;;;;;;;104145;1285;545190;-71
2024/03/17 02:45:00;;;;;;;8.20;2.40;;;;;;;;;;103853;1289;544732;-73
2024/03/17 02:48:36;;;;;;;10.00;2.40;;;;;;;;;;103706;1291;544665;-72
2024/03/17 02:52:12;;;;;;;9.60;2.20;;;;;;;;;;103661;1292;545152;-71
2024/03/17 02:55:53;;;;;;;9.50;2.40;;;;;;;;;;103850;1290;545131;-72
2024/03/17 02:59:26;;;;;;;8.50;2.10;;;;;;;;;;103826;1290;545248;-71
2024/03/17 03:03:16;;;;;;;8.40;2.40;;;;;;;;;;103910;1289;545493;-71
2024/03/17 03:06:44;;;;;;;9.90;2.60;;;;;;;;;;103805;1289;544987;-72
2024/03/17 03:10:28;;;;;;;11.00;3.00;;;;;;;;;;103792;1288;545735;-72
2024/03/17 03:14:20;;;;;;;9.70;2.80;;;;;;;;;;103517;1298;545008;-72
2024/03/17 03:17:34;;;;;;;11.30;2.50;;;;;;;;;;103713;1291;545426;-71
2024/03/17 03:21:15;;;;;;;10.20;2.50;;;;;;;;;;104573;1282;544920;-72
2024/03/17 03:24:54;;;;;;;10.20;2.30;;;;;;;;;;103614;1292;545485;-71
2024/03/17 03:28:40;;;;;;;9.60;2.30;;;;;;;;;;103877;1289;545324;-72
2024/03/17 03:32:10;;;;;;;8.20;2.30;;;;;;;;;;104769;1279;544977;-72
2024/03/17 03:35:45;;;;;;;10.10;2.20;;;;;;;;;;103808;1292;545606;-73
2024/03/17 03:39:19;;;;;;;9.70;2.10;;;;;;;;;;103830;1289;544737;-72
2024/03/17 03:43:28;;;;;;;9.90;2.10;;;;;;;;;;103528;1295;544924;-72
2024/03/17 03:50:23;;;;;;;9.20;1.90;;;;;;;;;;103884;1289;544739;-73
2024/03/17 03:54:07;;;;;;;7.40;1.90;;;;;;;;;;103638;1306;544942;-73
2024/03/17 03:57:52;;;;;;;7.70;2.10;;;;;;;;;;103725;1295;544899;-72
2024/03/17 04:05:03;;;;;;;10.30;1.80;;;;;;;;;;103823;1290;545039;-72
2024/03/17 04:08:39;;;;;;;;;;;;;;;;;;;;;
2024/03/17 04:12:28;;;;;;;7.80;1.80;;;;;;;;;;103447;1297;545336;-74
2024/03/17 04:15:58;;;;;;;9.20;1.90;;;;;;;;;;103809;1301;544789;-73
2024/03/17 04:19:16;;;;;;;9.10;2.10;;;;;;;;;;103722;1291;544938;-71
2024/03/17 04:23:21;;;;;;;7.30;1.80;;;;;;;;;;103554;1292;545474;-72
2024/03/17 04:26:30;;;;;;;10.20;2.30;;;;;;;;;;103812;1289;545063;-72
2024/03/17 04:30:28;;;;;;;8.60;2.00;;;;;;;;;;103669;1293;545469;-73
2024/03/17 04:33:52;;;;;;;9.20;2.20;;;;;;;;;;103741;1302;544835;-71
2024/03/17 04:37:19;;;;;;;8.50;1.80;;;;;;;;;;104332;1286;545245;-72
2024/03/17 04:41:09;;;;;;;7.40;1.60;;;;;;;;;;103891;1293;545536;-72
2024/03/17 04:48:34;;;;;;;7.90;1.90;;;;;;;;;;103835;1289;545111;-73
2024/03/17 04:52:03;;;;;;;10.80;2.00;;;;;;;;;;104304;1285;544965;-72
2024/03/17 04:55:59;;;;;;;8.90;1.70;;;;;;;;;;103657;1291;545692;-72
2024/03/17 04:59:32;;;;;;;7.60;1.80;;;;;;;;;;103816;1289;544972;-72
2024/03/17 05:03:00;;;;;;;;;;;;;;;;;;;;;
2024/03/17 05:06:33;;;;;;;9.70;2.10;;;;;;;;;;103719;1293;546014;-72
2024/03/17 05:10:23;;;;;;;9.80;2.30;;;;;;;;;;103414;1295;546815;-73
2024/03/17 05:13:44;;;;;;;9.50;2.10;;;;;;;;;;103828;1290;545006;-72
2024/03/17 05:17:36;;;;;;;;;;;;;;;;;;;;;
2024/03/17 05:21:11;;;;;;;;;;;;;;;;;;;;;
2024/03/17 05:24:56;;;;;;;;;;;;;;;;;;;;;
2024/03/17 05:32:44;;;;;;;;;;;;;;;;;;;;;
2024/03/17 05:36:18;;;;;;;8.60;2.30;;;;;;;;;;103863;1289;544832;-73
2024/03/17 05:39:26;;;;;;;8.20;2.30;;;;;;;;;;103854;1290;545590;-73
2024/03/17 05:43:03;;;;;;;8.50;2.40;;;;;;;;;;103988;1288;545908;-72
2024/03/17 05:46:38;;;;;;;8.70;2.20;;;;;;;;;;103744;1292;545176;-73
2024/03/17 05:50:16;;;;;;;9.80;2.50;;;;;;;;;;103768;1292;545929;-71
2024/03/17 05:54:08;;;;;;;8.90;2.20;;;;;;;;;;104062;1292;544901;-72
2024/03/17 05:58:20;;;;;;;11.00;2.30;;;;;;;;;;103569;1295;545399;-75
2024/03/17 06:01:11;;;;;;;9.70;2.30;;;;;;;;;;103777;1289;545014;-74
2024/03/17 06:05:20;;;;;;;;;;;;;;;;;;;;;
2024/03/17 06:08:21;;;;;;;9.50;2.50;;;;;;;;;;103817;1301;545031;-73
2024/03/17 06:12:35;;;;;;;;;;;;;;;;;;;;;
2024/03/17 06:16:04;;;;;;;9.90;2.20;;;;;;;;;;103849;1287;546240;-74
2024/03/17 06:19:20;;;;;;;10.30;2.50;;;;;;;;;;103588;1292;545630;-73
2024/03/17 06:22:53;;;;;;;11.10;2.30;;;;;;;;;;104031;1289;545717;-73
2024/03/17 06:26:34;;;;;;;9.40;2.20;;;;;;;;;;103689;1289;545737;-72
2024/03/17 06:30:17;;;;;;;12.20;3.30;;;;;;;;;;103740;1292;545380;-71
2024/03/17 06:33:48;;;;;;;11.40;2.40;;;;;;;;;;103806;1289;545590;-71
2024/03/17 06:37:47;;;;;;;9.50;2.40;;;;;;;;;;103867;1292;548154;-72
2024/03/17 06:41:00;;;;;;;12.90;2.40;;;;;;;;;;103772;1290;545745;-73
2024/03/17 06:44:47;;;;;;;10.70;2.50;;;;;;;;;;103999;1287;549007;-73
2024/03/17 06:48:15;;;;;;;12.50;2.40;;;;;;;;;;103668;1303;544915;-72
2024/03/17 06:52:17;;;;;;;13.00;2.30;;;;;;;;;;103632;1295;546061;-74
2024/03/17 06:55:33;;;;;;;10.30;2.20;;;;;;;;;;103694;1291;544765;-73
2024/03/17 06:59:29;;;;;;;11.60;2.30;;;;;;;;;;103603;1291;545573;-73
2024/03/17 07:02:45;;;;;;;12.50;2.30;;;;;;;;;;103641;1295;545022;-74
2024/03/17 07:06:19;;;;;;;12.70;2.40;;;;;;;;;;103775;1289;544944;-74
2024/03/17 07:10:04;;;;;;;12.50;2.30;;;;;;;;;;103814;1302;544812;-73
2024/03/17 07:13:53;;;;;;;11.00;2.30;;;;;;;;;;103854;1289;545835;-72
2024/03/17 07:17:23;;;;;;;10.00;2.10;;;;;;;;;;103801;1289;545045;-74
2024/03/17 07:21:14;;;;;;;13.90;3.00;;;;;;;;;;103703;1292;544782;-73
2024/03/17 07:24:30;;;;;;;9.80;3.00;;;;;;;;;;103853;1289;544922;-73
2024/03/17 07:28:13;;;;;;;16.10;4.90;;;;;;;;;;103916;1290;544894;-73
2024/03/17 07:31:57;;;;;;;8.80;2.60;;;;;;;;;;103873;1289;544924;-73
2024/03/17 07:35:25;;;;;;;13.40;3.30;;;;;;;;;;103842;1290;544756;-73
2024/03/17 07:39:05;;;;;;;10.80;2.80;;;;;;;;;;103864;1289;544758;-73
2024/03/17 07:42:37;;;;;;;13.00;3.90;;;;;;;;;;103683;1291;545548;-74
2024/03/17 07:46:29;;;;;;;13.20;5.90;;;;;;;;;;103759;1292;544934;-73
2024/03/17 07:50:03;;;;;;;10.30;2.30;;;;;;;;;;103712;1292;547793;-72
2024/03/17 07:53:33;;;;;;;9.50;2.90;;;;;;;;;;103686;1302;545426;-73
2024/03/17 07:57:24;;;;;;;11.30;2.70;;;;;;;;;;103797;1289;545033;-73
2024/03/17 08:00:45;;;;;;;9.60;2.50;;;;;;;;;;104017;1289;544672;-75
2024/03/17 08:04:18;;;;;;;11.60;3.00;;;;;;;;;;103730;1292;545132;-74
2024/03/17 08:08:09;;;;;;;11.80;2.80;;;;;;;;;;103900;1294;544838;-73
2024/03/17 08:11:38;;;;;;;9.90;2.50;;;;;;;;;;103788;1301;544995;-74
2024/03/17 08:15:45;;;;;;;8.50;2.00;;;;;;;;;;103755;1291;545870;-72
2024/03/17 08:18:55;;;;;;;9.80;1.90;;;;;;;;;;103761;1292;544815;-74
2024/03/17 08:22:30;;;;;;;8.60;2.20;;;;;;;;;;103791;1292;545056;-72
2024/03/17 08:26:16;;;;;;;9.30;2.30;;;;;;;;;;104115;1285;544961;-72
2024/03/17 08:29:47;;;;;;;9.40;1.80;;;;;;;;;;103709;1292;547973;-72
2024/03/17 08:33:35;;;;;;;9.10;2.20;;;;;;;;;;103696;1295;544864;-73
2024/03/17 08:37:00;;;;;;;7.40;2.00;;;;;;;;;;103771;1291;544981;-73
2024/03/17 08:40:38;;;;;;;11.70;2.40;;;;;;;;;;103816;1290;545793;-74
2024/03/17 08:44:14;;;;;;;10.80;2.20;;;;;;;;;;103844;1289;545034;-71
2024/03/17 08:48:21;;;;;;;10.00;2.50;;;;;;;;;;103668;1293;545376;-73
2024/03/17 08:51:31;;;;;;;8.70;2.70;;;;;;;;;;103828;1289;544774;-72
2024/03/17 08:55:09;;;;;;;10.40;2.20;;;;;;;;;;103670;1292;546450;-68
2024/03/17 08:58:55;;;;;;;;;;;;;;;;;;;;;
2024/03/17 09:02:35;;;;;;;7.80;2.40;;;;;;;;;;103674;1292;544991;-74
2024/03/17 09:06:16;;;;;;;8.90;2.60;;;;;;;;;;103617;1291;545960;-72
2024/03/17 09:09:37;;;;;;;10.90;3.00;;;;;;;;;;103704;1291;545079;-74
2024/03/17 09:13:18;;;;;;;9.50;2.70;;;;;;;;;;103806;1292;544872;-74
2024/03/17 09:17:20;;;;;;;9.20;3.40;;;;;;;;;;103593;1296;545781;-73
2024/03/17 09:20:33;;;;;;;9.50;3.20;;;;;;;;;;103654;1296;545410;-71
2024/03/17 09:24:07;;;;;;;8.80;3.00;;;;;;;;;;104536;1283;545563;-74
2024/03/17 09:28:08;;;;;;;8.60;3.20;;;;;;;;;;103762;1289;545041;-73
2024/03/17 09:31:22;;;;;;;8.70;3.50;;;;;;;;;;103805;1289;544930;-72
2024/03/17 09:35:16;;;;;;;;;;;;;;;;;;;;;
2024/03/17 09:38:56;;;;;;;9.70;3.30;;;;;;;;;;103779;1293;547917;-76
2024/03/17 09:42:34;;;;;;;9.30;4.00;;;;;;;;;;103697;1291;544903;-72
2024/03/17 09:46:34;;;;;;;7.70;3.60;;;;;;;;;;104370;1283;545038;-71
2024/03/17 09:53:13;;;;;;;10.60;3.20;;;;;;;;;;103680;1292;544793;-73
2024/03/17 09:56:46;;;;;;;10.20;3.50;;;;;;;;;;103868;1288;544731;-73
2024/03/17 10:00:22;;;;;;;6.50;2.40;;;;;;;;;;103898;1300;545078;-74
2024/03/17 10:04:03;;;;;;;9.20;2.50;;;;;;;;;;103616;1291;545212;-72
2024/03/17 10:07:38;;;;;;;8.20;2.70;;;;;;;;;;103865;1290;545458;-74
2024/03/17 10:11:20;;;;;;;8.00;2.60;;;;;;;;;;103725;1291;545027;-73
2024/03/17 10:14:59;;;;;;;10.00;3.10;;;;;;;;;;104092;1286;545450;-73
2024/03/17 10:18:30;;;;;;;8.00;3.00;;;;;;;;;;103904;1289;544959;-74
2024/03/17 10:22:15;;;;;;;8.80;2.90;;;;;;;;;;103578;1294;545317;-73
2024/03/17 10:25:45;;;;;;;8.10;2.40;;;;;;;;;;103688;1292;544823;-72
2024/03/17 10:29:24;;;;;;;7.90;2.80;;;;;;;;;;103969;1292;544789;-73
2024/03/17 10:33:00;;;;;;;9.90;2.80;;;;;;;;;;103772;1292;545046;-73
2024/03/17 10:36:40;;;;;;;7.80;2.30;;;;;;;;;;103966;1289;545082;-72
2024/03/17 10:40:29;;;;;;;6.30;1.90;;;;;;;;;;103853;1289;544812;-73
2024/03/17 10:43:53;;;;;;;7.10;2.00;;;;;;;;;;103671;1294;544785;-71
2024/03/17 10:47:26;;;;;;;7.10;1.80;;;;;;;;;;103733;1291;545018;-71
2024/03/17 10:51:10;;;;;;;6.40;1.70;;;;;;;;;;103822;1290;545032;-73
2024/03/17 10:54:50;;;;;;;8.90;1.70;;;;;;;;;;103778;1290;545929;-74
2024/03/17 10:58:40;;;;;;;7.60;1.80;;;;;;;;;;103646;1291;546679;-71
2024/03/17 11:02:00;;;;;;;7.30;1.80;;;;;;;;;;103781;1289;545516;-74
2024/03/17 11:05:37;;;;;;;9.30;2.20;;;;;;;;;;103787;1290;544716;-74
2024/03/17 11:09:15;;;;;;;6.10;2.00;;;;;;;;;;103891;1292;545262;-73
2024/03/17 11:12:55;;;;;;;9.60;3.40;;;;;;;;;;104589;1283;545023;-74
2024/03/17 11:16:35;;;;;;;10.10;3.20;;;;;;;;;;103766;1291;545076;-74
2024/03/17 11:20:26;;;;;;;8.70;2.50;;;;;;;;;;103762;1292;545912;-71
2024/03/17 11:23:54;;;;;;;10.40;3.40;;;;;;;;;;103665;1292;544763;-73
2024/03/17 11:27:40;;;;;;;11.20;4.20;;;;;;;;;;103719;1292;546552;-75
2024/03/17 11:31:00;;;;;;;10.10;3.40;;;;;;;;;;103806;1292;544942;-74
2024/03/17 11:34:40;;;;;;;9.70;3.60;;;;;;;;;;103925;1289;544993;-74
2024/03/17 11:38:33;;;;;;;7.80;2.70;;;;;;;;;;103825;1289;545062;-72
2024/03/17 11:41:54;;;;;;;7.70;2.10;;;;;;;;;;103654;1295;545057;-75
2024/03/17 11:45:29;;;;;;;7.30;2.00;;;;;;;;;;103752;1290;544991;-74
2024/03/17 11:49:17;;;;;;;8.00;1.90;;;;;;;;;;103817;1289;544688;-73
2024/03/17 11:52:45;;;;;;;10.10;2.80;;;;;;;;;;103686;1295;545922;-73
2024/03/17 11:56:38;;;;;;;9.20;2.00;;;;;;;;;;104011;1286;545045;-75
2024/03/17 11:59:59;;;;;;;7.00;2.00;;;;;;;;;;103797;1292;545054;-75
2024/03/17 12:03:38;;;;;;;7.40;2.10;;;;;;;;;;103841;1295;544927;-74
2024/03/17 12:07:27;;;;;;;8.00;2.90;;;;;;;;;;103879;1292;544805;-72
2024/03/17 12:10:52;;;;;;;5.50;1.80;;;;;;;;;;103884;1288;545718;-74
2024/03/17 12:14:38;;;;;;;8.60;1.70;;;;;;;;;;103954;1292;545030;-73
2024/03/17 12:18:20;;;;;;;6.80;1.50;;;;;;;;;;103848;1294;545235;-73
2024/03/17 12:21:45;;;;;;;7.60;1.80;;;;;;;;;;103721;1292;545057;-73
2024/03/17 12:25:26;;;;;;;7.10;2.10;;;;;;;;;;103838;1289;544882;-72
2024/03/17 12:29:21;;;;;;;;;;;;;;;;;;;;;
2024/03/17 12:32:52;;;;;;;5.60;1.60;;;;;;;;;;103750;1294;547867;-73
2024/03/17 12:36:16;;;;;;;10.30;2.40;;;;;;;;;;103705;1302;545519;-70
2024/03/17 12:39:54;;;;;;;9.90;3.60;;;;;;;;;;103471;1291;544997;-73
2024/03/17 12:43:31;;;;;;;10.80;3.40;;;;;;;;;;103842;1288;545651;-74
2024/03/17 12:47:07;;;;;;;12.30;4.30;;;;;;;;;;103780;1292;544945;-73
2024/03/17 12:50:52;;;;;;;16.10;5.60;;;;;;;;;;103630;1294;545783;-73
2024/03/17 12:54:25;;;;;;;16.10;5.90;;;;;;;;;;103741;1291;544776;-71
2024/03/17 13:01:36;;;;;;;15.30;5.50;;;;;;;;;;103857;1289;544917;-73
2024/03/17 13:05:14;;;;;;;16.00;5.60;;;;;;;;;;103611;1295;544693;-74
2024/03/17 13:08:53;;;;;;;14.90;4.50;;;;;;;;;;103777;1291;545419;-71
2024/03/17 13:12:49;;;;;;;6.80;1.90;;;;;;;;;;103779;1289;545331;-73
2024/03/17 13:16:08;;;;;;;10.90;3.80;;;;;;;;;;103672;1291;545186;-74
2024/03/17 13:19:47;;;;;;;10.00;3.20;;;;;;;;;;103718;1292;544826;-73
2024/03/17 13:23:24;;;;;;;11.00;3.30;;;;;;;;;;103593;1295;545439;-72
2024/03/17 13:27:05;;;;;;;7.00;1.70;;;;;;;;;;103827;1290;544918;-73
2024/03/17 13:30:36;;;;;;;6.60;1.90;;;;;;;;;;103835;1289;545150;-73
2024/03/17 13:34:17;;;;;;;11.10;3.30;;;;;;;;;;103786;1289;544922;-74
2024/03/17 13:37:54;;;;;;;10.70;3.80;;;;;;;;;;103837;1289;545497;-73
2024/03/17 13:41:29;;;;;;;10.50;3.40;;;;;;;;;;103777;1292;546574;-71
2024/03/17 13:45:10;;;;;;;9.50;3.00;;;;;;;;;;103603;1292;545435;-74
2024/03/17 13:48:44;;;;;;;9.40;3.70;;;;;;;;;;103930;1290;545521;-73
2024/03/17 13:52:24;;;;;;;15.70;6.60;;;;;;;;;;103842;1288;545871;-72
2024/03/17 13:55:59;;;;;;;12.70;4.80;;;;;;;;;;103947;1289;545169;-73
2024/03/17 13:59:58;;;;;;;9.40;3.10;;;;;;;;;;103856;1289;545276;-74
2024/03/17 14:03:18;;;;;;;10.70;3.60;;;;;;;;;;103613;1294;545415;-72
2024/03/17 14:06:56;;;;;;;9.10;2.00;;;;;;;;;;103823;1292;545599;-74
2024/03/17 14:10:36;;;;;;;8.50;2.40;;;;;;;;;;103884;1289;545019;-74
2024/03/17 14:14:07;;;;;;;7.30;1.80;;;;;;;;;;103644;1292;545530;-73
2024/03/17 14:17:45;;;;;;;8.00;2.00;;;;;;;;;;103689;1295;544924;-74
2024/03/17 14:21:43;;;;;;;5.70;1.60;;;;;;;;;;103831;1294;545072;-73
2024/03/17 14:25:44;;;;;;;8.40;2.10;;;;;;;;;;103831;1301;546286;-74
2024/03/17 14:28:41;;;;;;;11.60;3.70;;;;;;;;;;103502;1294;544995;-74
2024/03/17 14:32:30;;;;;;;9.90;3.70;;;;;;;;;;103571;1292;545372;-73
2024/03/17 14:35:57;;;;;;;9.70;3.20;;;;;;;;;;103975;1289;544630;-72
2024/03/17 14:39:38;;;;;;;8.50;2.40;;;;;;;;;;103668;1291;544875;-73
2024/03/17 14:43:06;;;;;;;9.70;4.20;;;;;;;;;;103843;1289;544884;-72
2024/03/17 14:46:56;;;;;;;8.50;2.70;;;;;;;;;;103830;1289;545542;-73
2024/03/17 14:50:21;;;;;;;10.20;3.90;;;;;;;;;;103619;1295;545414;-72
2024/03/17 14:54:00;;;;;;;17.60;6.90;;;;;;;;;;103577;1295;545005;-72
2024/03/17 14:57:38;;;;;;;39.80;16.20;;;;;;;;;;103807;1300;544798;-74
2024/03/17 15:01:13;;;;;;;15.60;4.80;;;;;;;;;;103797;1289;544936;-72
2024/03/17 15:04:51;;;;;;;33.30;11.90;;;;;;;;;;103732;1292;544881;-73
2024/03/17 15:08:40;;;;;;;17.90;5.70;;;;;;;;;;103795;1296;545541;-73
2024/03/17 15:12:25;;;;;;;;;;;;;;;;;;;;;
2024/03/17 15:15:45;;;;;;;20.60;8.10;;;;;;;;;;103743;1297;545529;-73
2024/03/17 15:19:23;;;;;;;49.40;22.00;;;;;;;;;;103767;1289;545045;-72
2024/03/17 15:23:01;;;;;;;47.70;24.20;;;;;;;;;;103761;1291;545073;-73
2024/03/17 15:26:36;;;;;;;27.70;12.30;;;;;;;;;;103783;1295;546306;-73
2024/03/17 15:30:25;;;;;;;12.90;3.60;;;;;;;;;;103837;1292;544845;-73
2024/03/17 15:33:51;;;;;;;19.00;7.90;;;;;;;;;;104064;1289;544863;-73
2024/03/17 15:37:44;;;;;;;12.30;3.80;;;;;;;;;;103850;1292;544994;-71
2024/03/17 15:41:06;;;;;;;10.50;3.50;;;;;;;;;;105017;1291;544987;-73
2024/03/17 15:44:41;;;;;;;15.40;6.30;;;;;;;;;;104128;1289;544959;-72
2024/03/17 15:48:17;;;;;;;15.50;6.60;;;;;;;;;;104601;1289;546004;-72
2024/03/17 15:52:14;;;;;;;;;;;;;;;;;;;;;
2024/03/17 15:55:35;;;;;;;10.90;3.80;;;;;;;;;;104021;1292;545364;-72
2024/03/17 15:59:13;;;;;;;10.30;3.90;;;;;;;;;;103835;1292;544831;-73
2024/03/17 16:02:50;;;;;;;11.70;2.40;;;;;;;;;;103733;1289;545972;-71
2024/03/17 16:06:30;;;;;;;9.40;2.40;;;;;;;;;;103827;1288;544993;-73
2024/03/17 16:10:11;;;;;;;9.50;2.60;;;;;;;;;;103706;1301;546419;-72
2024/03/17 16:13:45;;;;;;;11.90;3.20;;;;;;;;;;103762;1291;544936;-71
2024/03/17 16:17:38;;;;;;;12.90;2.80;;;;;;;;;;103509;1294;548084;-73
2024/03/17 16:21:14;;;;;;;11.80;3.60;;;;;;;;;;103802;1292;544801;-72
2024/03/17 16:24:38;;;;;;;13.10;4.80;;;;;;;;;;103681;1292;549274;-73
2024/03/17 16:28:14;;;;;;;17.80;6.10;;;;;;;;;;103715;1289;546369;-73
2024/03/17 16:31:50;;;;;;;14.80;5.00;;;;;;;;;;103568;1296;544825;-74
2024/03/17 16:35:28;;;;;;;9.80;3.30;;;;;;;;;;103814;1289;544651;-72
2024/03/17 16:39:21;;;;;;;9.70;2.60;;;;;;;;;;103816;1289;545165;-71
2024/03/17 16:42:42;;;;;;;10.40;2.80;;;;;;;;;;103826;1289;545428;-73
2024/03/17 16:46:20;;;;;;;12.80;2.80;;;;;;;;;;103806;1289;545088;-73
2024/03/17 16:49:59;;;;;;;11.20;2.90;;;;;;;;;;103690;1292;545033;-72
2024/03/17 16:53:34;;;;;;;13.20;4.10;;;;;;;;;;104583;1285;545774;-72
2024/03/17 16:57:19;;;;;;;14.00;4.90;;;;;;;;;;103614;1295;545099;-72
2024/03/17 17:00:50;;;;;;;14.60;5.20;;;;;;;;;;103845;1292;545062;-73
2024/03/17 17:04:26;;;;;;;14.40;5.20;;;;;;;;;;103729;1291;545529;-74
2024/03/17 17:08:18;;;;;;;17.50;9.30;;;;;;;;;;103841;1289;544999;-71
2024/03/17 17:12:06;;;;;;;16.90;6.70;;;;;;;;;;103624;1295;545288;-72
2024/03/17 17:15:22;;;;;;;14.00;5.60;;;;;;;;;;103816;1289;544995;-72
2024/03/17 17:18:58;;;;;;;15.60;6.00;;;;;;;;;;103330;1295;545773;-71
2024/03/17 17:22:41;;;;;;;16.20;6.50;;;;;;;;;;103582;1293;545073;-73
2024/03/17 17:26:33;;;;;;;15.80;5.90;;;;;;;;;;104163;1285;545377;-71
2024/03/17 17:29:50;;;;;;;14.70;6.00;;;;;;;;;;103731;1291;545445;-72
2024/03/17 17:33:35;;;;;;;15.50;6.40;;;;;;;;;;103709;1295;545766;-72
2024/03/17 17:37:28;;;;;;;14.00;5.30;;;;;;;;;;104320;1286;545486;-72
2024/03/17 17:40:43;;;;;;;15.50;5.70;;;;;;;;;;103947;1289;544774;-71
2024/03/17 17:44:24;;;;;;;16.30;7.20;;;;;;;;;;104054;1290;544967;-73
2024/03/17 17:48:19;;;;;;;;;;;;;;;;;;;;;
2024/03/17 17:51:35;;;;;;;18.40;8.00;;;;;;;;;;103812;1292;544621;-73
2024/03/17 17:55:12;;;;;;;56.70;28.30;;;;;;;;;;103528;1293;545014;-72
2024/03/17 17:58:53;;;;;;;40.10;18.50;;;;;;;;;;103925;1289;544890;-72
2024/03/17 18:02:47;;;;;;;23.60;10.70;;;;;;;;;;103794;1293;548305;-73
2024/03/17 18:06:34;;;;;;;62.50;27.40;;;;;;;;;;103421;1297;545348;-73
2024/03/17 18:09:42;;;;;;;41.60;20.20;;;;;;;;;;103777;1288;544910;-73
2024/03/17 18:13:33;;;;;;;53.30;27.60;;;;;;;;;;104218;1289;545021;-72
2024/03/17 18:16:59;;;;;;;80.70;45.30;;;;;;;;;;103916;1292;545923;-72
2024/03/17 18:20:53;;;;;;;51.20;26.40;;;;;;;;;;103929;1292;544863;-71
2024/03/17 18:28:20;;;;;;;;;;;;;;;;;;;;;
2024/03/17 18:31:29;;;;;;;42.80;21.90;;;;;;;;;;103741;1292;544798;-73
2024/03/17 18:35:14;;;;;;;22.50;10.30;;;;;;;;;;103839;1288;545525;-71
2024/03/17 18:38:42;;;;;;;52.60;27.90;;;;;;;;;;103765;1295;544747;-72
2024/03/17 18:42:52;;;;;;;;;;;;;;;;;;;;;
2024/03/17 18:45:56;;;;;;;17.90;9.90;;;;;;;;;;103744;1289;544959;-72
2024/03/17 18:49:31;;;;;;;14.70;6.10;;;;;;;;;;103812;1288;544960;-71
2024/03/17 18:53:39;;;;;;;19.00;10.20;;;;;;;;;;103621;1291;545119;-72
2024/03/17 18:57:30;;;;;;;16.20;8.80;;;;;;;;;;103822;1295;544957;-73
2024/03/17 19:00:30;;;;;;;17.00;8.90;;;;;;;;;;103572;1292;544968;-73
2024/03/17 19:04:15;;;;;;;19.60;8.90;;;;;;;;;;103843;1289;544775;-72
2024/03/17 19:07:42;;;;;;;18.00;7.00;;;;;;;;;;103645;1291;544739;-72
2024/03/17 19:11:20;;;;;;;17.30;7.50;;;;;;;;;;103681;1292;544734;-72
2024/03/17 19:14:57;;;;;;;20.40;9.50;;;;;;;;;;103826;1292;544994;-72
2024/03/17 19:18:48;;;;;;;18.40;8.30;;;;;;;;;;103973;1289;544741;-72
2024/03/17 19:22:39;;;;;;;18.80;8.90;;;;;;;;;;103826;1292;544960;-72
2024/03/17 19:26:24;;;;;;;15.10;6.90;;;;;;;;;;103834;1289;547927;-72
2024/03/17 19:33:43;;;;;;;18.20;10.00;;;;;;;;;;103669;1292;545025;-73
2024/03/17 19:36:51;;;;;;;12.40;5.10;;;;;;;;;;104002;1291;545006;-72
2024/03/17 19:40:33;;;;;;;14.20;7.60;;;;;;;;;;103841;1295;544726;-73
2024/03/17 19:44:02;;;;;;;14.90;8.10;;;;;;;;;;103811;1291;544854;-72
2024/03/17 19:48:06;;;;;;;12.20;7.70;;;;;;;;;;103662;1297;545695;-72
2024/03/17 19:51:33;;;;;;;21.50;15.20;;;;;;;;;;103741;1290;544984;-72
2024/03/17 19:55:25;;;;;;;17.40;9.60;;;;;;;;;;103649;1291;544837;-72
2024/03/17 19:58:41;;;;;;;19.70;10.10;;;;;;;;;;103847;1290;544984;-73
2024/03/17 20:02:13;;;;;;;17.50;9.80;;;;;;;;;;103550;1298;545741;-72
2024/03/17 20:05:51;;;;;;;11.60;5.80;;;;;;;;;;103901;1291;545108;-71
2024/03/17 20:09:28;;;;;;;10.70;5.40;;;;;;;;;;103933;1294;545708;-71
2024/03/17 20:13:21;;;;;;;;;;;;;;;;;;;;;
2024/03/17 20:16:45;;;;;;;11.90;5.50;;;;;;;;;;103766;1290;544999;-73
2024/03/17 20:24:09;;;;;;;9.80;4.30;;;;;;;;;;103692;1292;546004;-73
2024/03/17 20:27:46;;;;;;;10.40;5.10;;;;;;;;;;103640;1292;545004;-73
2024/03/17 20:31:17;;;;;;;11.20;5.40;;;;;;;;;;103844;1302;545604;-72
2024/03/17 20:35:10;;;;;;;12.70;6.40;;;;;;;;;;103547;1293;544751;-72
2024/03/17 20:38:27;;;;;;;11.70;6.00;;;;;;;;;;103829;1292;545010;-73
2024/03/17 20:42:09;;;;;;;11.20;6.40;;;;;;;;;;103599;1295;546079;-72
2024/03/17 20:45:42;;;;;;;12.80;6.50;;;;;;;;;;103780;1289;544761;-72
2024/03/17 20:49:20;;;;;;;15.00;7.50;;;;;;;;;;103614;1291;545590;-73
2024/03/17 20:53:01;;;;;;;16.70;8.00;;;;;;;;;;103922;1300;545695;-73
2024/03/17 20:56:35;;;;;;;14.00;7.00;;;;;;;;;;104667;1283;545504;-73
2024/03/17 21:00:36;;;;;;;12.00;6.30;;;;;;;;;;103629;1291;545428;-73
2024/03/17 21:03:58;;;;;;;16.70;8.50;;;;;;;;;;103806;1291;544790;-72
2024/03/17 21:07:41;;;;;;;17.30;9.10;;;;;;;;;;103752;1292;545604;-73
2024/03/17 21:11:07;;;;;;;19.90;10.80;;;;;;;;;;103742;1295;544706;-73
2024/03/17 21:14:43;;;;;;;20.40;11.70;;;;;;;;;;103754;1294;545924;-73
2024/03/17 21:18:19;;;;;;;17.50;9.50;;;;;;;;;;103884;1289;544961;-71
2024/03/17 21:21:56;;;;;;;16.30;8.80;;;;;;;;;;103746;1292;544714;-71
2024/03/17 21:25:56;;;;;;;12.50;5.90;;;;;;;;;;103641;1291;544987;-72
2024/03/17 21:30:05;;;;;;;15.20;7.20;;;;;;;;;;103640;1291;544918;-73
2024/03/17 21:33:02;;;;;;;16.30;7.70;;;;;;;;;;103760;1292;544776;-73
2024/03/17 21:36:41;;;;;;;19.40;10.40;;;;;;;;;;104075;1286;544794;-73
2024/03/17 21:40:09;;;;;;;17.90;9.40;;;;;;;;;;103608;1292;544953;-72
2024/03/17 21:43:43;;;;;;;17.80;9.10;;;;;;;;;;103783;1289;544918;-71
2024/03/17 21:47:20;;;;;;;15.60;7.40;;;;;;;;;;103808;1294;545651;-72
2024/03/17 21:50:57;;;;;;;16.50;8.30;;;;;;;;;;103811;1289;545151;-72
2024/03/17 21:54:57;;;;;;;16.00;8.20;;;;;;;;;;103685;1305;545054;-72
2024/03/17 21:58:26;;;;;;;14.60;6.90;;;;;;;;;;103919;1289;546361;-73
2024/03/17 22:02:00;;;;;;;;;;;;;;;;;;;;;
2024/03/17 22:05:30;;;;;;;21.00;6.80;;;;;;;;;;103780;1289;545162;-73